Portland, OR

7:30 PM PST on March 04, 2015 (GMT -0800)
Hillsdale | Change Station
CLOSE
Current Station
Personal Weather Station
Location: Portland, OR
Elevation: 636 ft
Nearby Weather Stations

Elev 636 ft 45.49 °N, 122.70 °W | Updated 7 minutes ago

Clear
Clear
48.3 °F
Feels Like 48 °F
N
1.0
Wind Variable Wind from NNW
Gusts 1.0 mph

Today
High -- | Low -- °F
--% Chance of Precip.
Yesterday
High -- | Low -- °F
Precip. -- in
6:43 AM 6:01 PM
Full, 100% visible
Pressure 30.24 in
Visibility 10.0 miles
Clouds Few 25000 ft
Windchill 48 °F
Dew Point 28 °F
Humidity 45%
Rainfall 0.00 in
Snow Depth Not available.
UV 0 out of 12
Pollen 3.80 out of 12
Air Quality Not available.
Flu Activity Not available.
METAR KPDX 050253Z 00000KT 10SM FEW250 11/M04 A3024 RMK AO2 SLP239 T01061039 53002

More Conditions Fewer Conditions

Pressure 30.24 in
Visibility 10.0 miles
Clouds Few 25000 ft
Windchill 48 °F
Dew Point 28 °F
Humidity 45%
Rainfall 0.00 in
Snow Depth Not available.
UV 0 out of 12
Pollen 3.80 out of 12
Air Quality Not available.
Flu Activity Not available.
METAR KPDX 050253Z 00000KT 10SM FEW250 11/M04 A3024 RMK AO2 SLP239 T01061039 53002

More Conditions Fewer Conditions

10-Day Weather Forecast

Almanac

Astronomy

Mar. 04, 2015 Rise Set
Actual Time
Civil Twilight
Nautical Twilight
Astronomical Twilight
Moon
Length of Visible Light
Length of Day
Tomorrow will be .
, % of the Moon is Illuminated

Today's Extremes

State Highs State Lows

Community

WunderPhotos

Upload Photos

1,802,652 photos uploaded!

WunderBlogs® & News

Nearby

Air Quality

  Air Quality AQ Index Pollutant
Not available.

Snow Depth

Station Depth Elevation

Earthquake Activity

City Distance Mag. Time & Date
Minimum magnitude displayed is 2.5.

Coastal Water Temperatures

Place Temperature

Nearby Weather Stations